Time;durP1;ratioP1;P1;durP2;ratioP2;P2;SDS_P1;SDS_P2;PMS_P1;PMS_P2;Temp;Humidity;BMP_temperature;BMP_pressure;BME280_temperature;BME280_humidity;BME280_pressure;Samples;Min_cycle;Max_cycle;Signal;HPM_P1;HPM_P2
2021/08/10 00:01:15;;;;;;;8.90;4.65;;;13.70;99.90;;;;;;5132025;28;20479;-85
2021/08/10 00:03:41;;;;;;;9.25;5.20;;;13.70;99.90;;;;;;5114875;28;20426;-84
2021/08/10 00:06:08;;;;;;;11.90;4.95;;;13.70;99.90;;;;;;5131959;28;20052;-84
2021/08/10 00:08:35;;;;;;;12.55;5.03;;;13.70;99.90;;;;;;5114983;28;20372;-85
2021/08/10 00:11:02;;;;;;;10.52;5.55;;;13.70;99.90;;;;;;5115022;28;20104;-85
2021/08/10 00:13:29;;;;;;;8.07;4.97;;;13.70;99.90;;;;;;5131717;28;20368;-84
2021/08/10 00:15:56;;;;;;;9.65;5.10;;;13.70;99.90;;;;;;5132230;28;20118;-84
2021/08/10 00:18:23;;;;;;;10.85;5.35;;;13.70;99.90;;;;;;5115153;28;20039;-84
2021/08/10 00:20:50;;;;;;;8.95;4.78;;;13.70;99.90;;;;;;5148341;28;20043;-83
2021/08/10 00:23:18;;;;;;;12.05;4.95;;;13.60;99.90;;;;;;5131963;28;20059;-84
2021/08/10 00:25:47;;;;;;;10.05;5.13;;;13.60;99.90;;;;;;5131587;28;20437;-84
2021/08/10 00:28:14;;;;;;;10.77;4.70;;;13.60;99.90;;;;;;5132042;28;20035;-85
2021/08/10 00:30:44;;;;;;;8.65;4.93;;;13.60;99.90;;;;;;5148315;28;20034;-85
2021/08/10 00:33:12;;;;;;;9.65;5.30;;;13.60;99.90;;;;;;5114455;28;20063;-85
2021/08/10 00:35:39;;;;;;;8.48;5.07;;;13.60;99.90;;;;;;5131308;28;20063;-86
2021/08/10 00:38:08;;;;;;;12.35;5.03;;;13.50;99.90;;;;;;5148869;28;20031;-85
2021/08/10 00:40:37;;;;;;;10.93;5.20;;;13.60;99.90;;;;;;5148087;28;20129;-85
2021/08/10 00:43:29;;;;;;;12.95;5.60;;;13.60;99.90;;;;;;5150417;28;20478;-84
2021/08/10 00:45:56;;;;;;;9.30;5.20;;;13.50;99.90;;;;;;5148277;28;20036;-85
2021/08/10 00:48:22;;;;;;;13.18;5.35;;;13.60;99.90;;;;;;5132057;28;20517;-85
2021/08/10 00:50:49;;;;;;;11.05;5.55;;;13.60;99.90;;;;;;5114221;28;20089;-85
2021/08/10 00:53:17;;;;;;;12.25;5.82;;;13.60;99.90;;;;;;5131108;28;20046;-85
2021/08/10 00:55:43;;;;;;;10.68;6.10;;;13.60;99.90;;;;;;5148080;28;20035;-85
2021/08/10 00:58:12;;;;;;;12.30;5.85;;;13.70;99.90;;;;;;5114645;28;20027;-86
2021/08/10 01:00:39;;;;;;;14.63;6.32;;;13.60;99.90;;;;;;5130901;28;20422;-85
2021/08/10 01:03:06;;;;;;;9.95;6.45;;;13.60;99.90;;;;;;5114341;28;20039;-84
2021/08/10 01:05:35;;;;;;;10.30;6.30;;;13.60;99.90;;;;;;5147993;28;20062;-84
2021/08/10 01:08:08;;;;;;;13.23;6.07;;;13.70;99.90;;;;;;5149000;28;20040;-84
2021/08/10 01:10:41;;;;;;;12.93;6.05;;;13.70;99.90;;;;;;5147697;28;20050;-84
2021/08/10 01:13:17;;;;;;;17.60;6.25;;;13.70;99.90;;;;;;5149072;28;20050;-85
2021/08/10 01:15:53;;;;;;;11.90;6.70;;;13.70;99.90;;;;;;5148796;28;20391;-85
2021/08/10 01:18:27;;;;;;;12.73;6.13;;;13.70;99.90;;;;;;5147991;28;20039;-85
2021/08/10 01:21:25;;;;;;;11.35;6.60;;;13.80;99.90;;;;;;5147686;28;20039;-85
2021/08/10 01:24:01;;;;;;;14.38;6.93;;;13.80;99.90;;;;;;5147484;28;20479;-85
2021/08/10 01:26:49;;;;;;;13.32;6.53;;;13.80;99.90;;;;;;5147616;28;20067;-87
2021/08/10 01:29:38;;;;;;;18.70;7.32;;;13.90;99.90;;;;;;5147870;28;20467;-86
2021/08/10 01:32:05;;;;;;;11.65;6.60;;;13.90;99.90;;;;;;5149060;28;20524;-86
2021/08/10 01:34:45;;;;;;;13.35;7.47;;;13.90;99.90;;;;;;5130853;28;20080;-86
2021/08/10 01:37:17;;;;;;;14.45;7.55;;;13.90;99.90;;;;;;5147897;28;20035;-86
2021/08/10 01:39:46;;;;;;;14.43;7.43;;;14.00;99.90;;;;;;5148613;28;20529;-87
2021/08/10 01:42:16;;;;;;;14.25;7.57;;;14.00;99.90;;;;;;5131298;28;20150;-86
2021/08/10 01:44:45;;;;;;;16.45;7.40;;;14.00;99.90;;;;;;5149940;28;20058;-86
2021/08/10 01:47:11;;;;;;;18.90;8.07;;;14.00;99.90;;;;;;5135207;28;20039;-87
2021/08/10 01:49:40;;;;;;;15.95;8.05;;;14.10;99.90;;;;;;5135412;28;20035;-87
2021/08/10 01:52:12;;;;;;;17.23;8.10;;;14.00;99.90;;;;;;5152049;28;20059;-87
2021/08/10 01:54:42;;;;;;;12.02;7.47;;;14.10;99.90;;;;;;5151991;28;20407;-87
2021/08/10 01:57:11;;;;;;;14.15;7.25;;;14.00;99.90;;;;;;5153087;27;20043;-86
2021/08/10 01:59:39;;;;;;;15.30;7.05;;;14.10;99.90;;;;;;5151822;28;20032;-86
2021/08/10 02:02:06;;;;;;;14.70;7.60;;;14.10;99.90;;;;;;5134303;28;20506;-86
2021/08/10 02:04:34;;;;;;;21.30;8.15;;;14.10;99.90;;;;;;5151587;28;20035;-86
2021/08/10 02:07:02;;;;;;;13.10;7.28;;;14.20;99.90;;;;;;5134264;28;20062;-86
2021/08/10 02:09:30;;;;;;;19.00;7.63;;;14.10;99.90;;;;;;5151929;28;20032;-86
2021/08/10 02:11:58;;;;;;;16.42;7.93;;;14.10;99.90;;;;;;5151258;28;20088;-86
2021/08/10 02:14:26;;;;;;;16.42;8.68;;;14.10;99.90;;;;;;5151593;28;20589;-87
2021/08/10 02:16:57;;;;;;;14.75;7.90;;;14.20;99.90;;;;;;5152168;28;20028;-87
2021/08/10 02:19:24;;;;;;;13.40;7.68;;;14.20;99.90;;;;;;5151513;28;20476;-86
2021/08/10 02:21:56;;;;;;;14.45;8.25;;;14.20;99.90;;;;;;5134188;28;20058;-86
2021/08/10 02:24:26;;;;;;;15.10;7.13;;;14.20;99.90;;;;;;5152771;28;20031;-86
2021/08/10 02:27:00;;;;;;;16.08;9.05;;;14.20;99.90;;;;;;5150865;28;20032;-85
2021/08/10 02:29:32;;;;;;;14.32;7.25;;;14.20;99.90;;;;;;5151151;28;20508;-86
2021/08/10 02:32:00;;;;;;;14.75;7.22;;;14.20;99.90;;;;;;5133712;28;20074;-86
2021/08/10 02:34:28;;;;;;;14.80;7.82;;;14.20;99.90;;;;;;5151189;28;20110;-87
2021/08/10 02:36:58;;;;;;;14.55;7.93;;;14.20;99.90;;;;;;5133861;28;20468;-86
2021/08/10 02:39:27;;;;;;;14.07;7.78;;;14.20;99.90;;;;;;5133857;28;20387;-86
2021/08/10 02:41:55;;;;;;;16.25;7.95;;;14.20;99.90;;;;;;5116757;28;20046;-86
2021/08/10 02:44:25;;;;;;;18.20;7.95;;;14.20;99.90;;;;;;5151571;28;20399;-87
2021/08/10 02:46:52;;;;;;;16.83;7.53;;;14.10;99.90;;;;;;5151311;28;20061;-86
2021/08/10 02:49:19;;;;;;;16.73;8.40;;;14.10;99.90;;;;;;5151036;28;20437;-86
2021/08/10 02:51:45;;;;;;;16.70;8.20;;;14.10;99.90;;;;;;5117397;28;20031;-87
2021/08/10 02:54:13;;;;;;;15.48;7.78;;;14.10;99.90;;;;;;5133507;28;20046;-87
2021/08/10 02:56:51;;;;;;;16.67;7.25;;;14.10;99.90;;;;;;5116262;28;20048;-86
2021/08/10 02:59:29;;;;;;;19.00;8.38;;;14.10;99.90;;;;;;5150818;28;20035;-86
2021/08/10 03:02:09;;;;;;;15.18;7.28;;;14.10;99.90;;;;;;5150812;28;20092;-86
2021/08/10 03:04:42;;;;;;;17.35;7.70;;;14.00;99.90;;;;;;5151152;28;20092;-86
2021/08/10 03:07:10;;;;;;;14.85;7.60;;;14.00;99.90;;;;;;5150094;28;20376;-87
2021/08/10 03:09:37;;;;;;;14.68;7.70;;;14.00;99.90;;;;;;5116778;28;20051;-86
2021/08/10 03:12:07;;;;;;;11.98;6.63;;;14.00;99.90;;;;;;5116662;28;20035;-86
2021/08/10 03:14:34;;;;;;;16.20;7.57;;;14.00;99.90;;;;;;5150228;28;20128;-86
2021/08/10 03:17:06;;;;;;;15.70;7.63;;;14.00;99.90;;;;;;5132961;28;20036;-86
2021/08/10 03:19:35;;;;;;;14.93;7.28;;;14.00;99.90;;;;;;5150438;28;20396;-86
2021/08/10 03:22:04;;;;;;;15.50;7.60;;;14.00;99.90;;;;;;5149568;28;20061;-86
2021/08/10 03:24:31;;;;;;;17.20;7.93;;;14.00;99.90;;;;;;5132951;28;20109;-86
2021/08/10 03:27:01;;;;;;;13.30;7.13;;;14.00;99.90;;;;;;5132884;28;20483;-86
2021/08/10 03:29:34;;;;;;;14.27;6.97;;;14.00;99.90;;;;;;5150316;28;20040;-86
2021/08/10 03:32:02;;;;;;;11.43;6.32;;;14.00;99.90;;;;;;5149525;28;20491;-86
2021/08/10 03:34:31;;;;;;;12.45;7.03;;;14.00;99.90;;;;;;5149969;28;20046;-86
2021/08/10 03:37:00;;;;;;;13.52;7.57;;;14.00;99.90;;;;;;5149197;28;20036;-86
2021/08/10 03:39:31;;;;;;;13.80;7.50;;;14.00;99.90;;;;;;5149858;28;20444;-86
2021/08/10 03:41:59;;;;;;;12.50;6.90;;;14.00;99.90;;;;;;5149765;28;20062;-86
2021/08/10 03:44:28;;;;;;;19.00;7.78;;;14.00;99.90;;;;;;5150175;28;20039;-86
2021/08/10 03:46:55;;;;;;;13.98;7.05;;;14.00;99.90;;;;;;5133429;28;20472;-87
2021/08/10 03:49:23;;;;;;;12.48;6.85;;;14.10;99.90;;;;;;5116521;28;20036;-87
2021/08/10 03:51:51;;;;;;;15.05;7.82;;;14.10;99.90;;;;;;5133551;28;20043;-87
2021/08/10 03:54:18;;;;;;;15.60;8.32;;;14.10;99.90;;;;;;5149043;28;20036;-86
2021/08/10 03:56:46;;;;;;;13.73;7.60;;;14.10;99.90;;;;;;5132880;28;20035;-87
2021/08/10 03:59:15;;;;;;;17.15;7.35;;;14.10;99.90;;;;;;5132567;28;20093;-86
2021/08/10 04:01:43;;;;;;;19.48;7.82;;;14.10;99.90;;;;;;5150627;28;20042;-85
2021/08/10 04:04:12;;;;;;;17.17;8.18;;;14.20;99.90;;;;;;5132543;28;20027;-86
2021/08/10 04:06:44;;;;;;;13.90;8.15;;;14.20;99.90;;;;;;5132805;28;20512;-86
2021/08/10 04:09:11;;;;;;;14.50;7.72;;;14.20;99.90;;;;;;5131723;28;20036;-86
2021/08/10 04:11:39;;;;;;;12.27;7.13;;;14.20;99.90;;;;;;5148727;28;20058;-85
2021/08/10 04:14:07;;;;;;;12.48;7.63;;;14.20;99.90;;;;;;5148009;28;20039;-86
2021/08/10 04:16:48;;;;;;;13.43;7.18;;;14.20;99.90;;;;;;5132611;28;20032;-86
2021/08/10 04:19:15;;;;;;;13.50;6.80;;;14.20;99.90;;;;;;5131595;28;20031;-86
2021/08/10 04:21:42;;;;;;;16.70;8.52;;;14.20;99.90;;;;;;5132242;28;20088;-86
2021/08/10 04:24:09;;;;;;;16.65;8.23;;;14.20;99.90;;;;;;5114905;28;20035;-87
2021/08/10 04:26:37;;;;;;;18.10;7.90;;;14.20;99.90;;;;;;5149058;28;20038;-86
2021/08/10 04:29:04;;;;;;;15.10;8.35;;;14.20;99.90;;;;;;5131918;28;20046;-86
2021/08/10 04:31:31;;;;;;;14.25;7.85;;;14.20;99.90;;;;;;5149036;28;20044;-86
2021/08/10 04:33:58;;;;;;;19.00;8.35;;;14.20;99.90;;;;;;5131849;28;20031;-86
2021/08/10 04:36:25;;;;;;;18.88;7.70;;;14.20;99.90;;;;;;5131380;28;20031;-87
2021/08/10 04:38:52;;;;;;;13.30;7.85;;;14.20;99.90;;;;;;5131840;28;20031;-86
2021/08/10 04:41:18;;;;;;;14.90;8.13;;;14.20;99.90;;;;;;5114527;28;20077;-86
2021/08/10 04:43:45;;;;;;;13.60;8.02;;;14.20;99.90;;;;;;5148845;28;20035;-87
2021/08/10 04:46:12;;;;;;;13.48;7.95;;;14.20;99.90;;;;;;5114559;28;20038;-86
2021/08/10 04:48:39;;;;;;;15.45;7.40;;;14.20;99.90;;;;;;5115211;28;20484;-86
2021/08/10 04:51:06;;;;;;;12.90;8.02;;;14.30;99.90;;;;;;5139932;28;20035;-86
2021/08/10 04:53:33;;;;;;;17.00;8.38;;;14.30;99.90;;;;;;5111227;28;20469;-87
2021/08/10 04:55:59;;;;;;;21.55;8.27;;;14.20;99.90;;;;;;5111393;28;20039;-86
2021/08/10 04:58:26;;;;;;;17.35;8.10;;;14.30;99.90;;;;;;5127370;28;20028;-86
2021/08/10 05:00:53;;;;;;;17.55;7.85;;;14.30;99.90;;;;;;5127616;28;20043;-86
2021/08/10 05:03:20;;;;;;;15.40;7.70;;;14.30;99.90;;;;;;5114872;28;20519;-86
2021/08/10 05:05:48;;;;;;;17.17;8.27;;;14.30;99.90;;;;;;5128226;28;20040;-87
2021/08/10 05:08:16;;;;;;;14.13;7.75;;;14.30;99.90;;;;;;5130905;28;20036;-86
2021/08/10 05:10:43;;;;;;;14.43;7.90;;;14.40;99.90;;;;;;5121925;28;20042;-86
2021/08/10 05:13:10;;;;;;;14.35;7.80;;;14.50;99.90;;;;;;5131121;28;20043;-86
2021/08/10 05:15:37;;;;;;;15.40;7.70;;;14.50;99.90;;;;;;5114837;28;20036;-86
2021/08/10 05:18:04;;;;;;;15.52;7.85;;;14.50;99.90;;;;;;5147820;28;20054;-86
2021/08/10 05:20:31;;;;;;;11.52;7.25;;;14.50;99.90;;;;;;5147152;28;20112;-86
2021/08/10 05:22:58;;;;;;;23.23;8.68;;;14.50;99.90;;;;;;5149210;28;20039;-86
2021/08/10 05:25:25;;;;;;;13.73;7.63;;;14.60;99.90;;;;;;5130635;28;20063;-86
2021/08/10 05:27:52;;;;;;;11.65;7.63;;;14.60;99.90;;;;;;5131146;28;20058;-86
2021/08/10 05:30:19;;;;;;;16.55;8.15;;;14.60;99.90;;;;;;5097268;28;20047;-86
2021/08/10 05:32:46;;;;;;;12.73;7.57;;;14.70;99.90;;;;;;5114176;28;20472;-86
2021/08/10 05:35:13;;;;;;;21.73;8.88;;;14.70;99.90;;;;;;5130985;28;20092;-86
2021/08/10 05:37:39;;;;;;;16.15;8.07;;;14.70;99.90;;;;;;5147871;28;20483;-85
2021/08/10 05:40:07;;;;;;;13.75;7.57;;;14.70;99.90;;;;;;5113693;28;20035;-87
2021/08/10 05:42:34;;;;;;;18.90;9.05;;;14.70;99.90;;;;;;5147843;28;20044;-86
2021/08/10 05:45:00;;;;;;;19.00;8.90;;;14.70;99.90;;;;;;5131675;28;20042;-86
2021/08/10 05:47:28;;;;;;;15.80;8.45;;;14.70;99.90;;;;;;5114123;28;20039;-87
2021/08/10 05:49:55;;;;;;;15.95;8.10;;;14.70;99.90;;;;;;5114034;28;20369;-86
2021/08/10 05:52:22;;;;;;;16.25;8.10;;;14.70;99.90;;;;;;5130267;28;20036;-86
2021/08/10 05:54:49;;;;;;;14.52;8.40;;;14.70;99.90;;;;;;5097027;28;20085;-87
2021/08/10 05:57:17;;;;;;;15.82;7.75;;;14.80;99.90;;;;;;5096905;28;20141;-86
2021/08/10 05:59:44;;;;;;;13.82;7.82;;;14.70;99.90;;;;;;5130893;28;20056;-86
2021/08/10 06:02:14;;;;;;;15.07;8.13;;;14.80;99.90;;;;;;5147564;28;20039;-86
2021/08/10 06:04:41;;;;;;;14.98;8.40;;;14.80;99.90;;;;;;5097020;28;20131;-86
2021/08/10 06:07:07;;;;;;;14.95;8.40;;;14.80;99.90;;;;;;5113769;28;20036;-87
2021/08/10 06:09:34;;;;;;;12.38;7.80;;;14.90;99.90;;;;;;5129841;28;20044;-87
2021/08/10 06:12:02;;;;;;;14.38;7.68;;;14.90;99.90;;;;;;5113668;28;20062;-86
2021/08/10 06:14:31;;;;;;;17.58;8.80;;;15.00;99.90;;;;;;5097167;28;20036;-86
2021/08/10 06:16:58;;;;;;;14.85;8.00;;;15.00;99.90;;;;;;5122288;28;20032;-86
2021/08/10 06:19:25;;;;;;;17.13;7.97;;;15.10;99.90;;;;;;5092539;28;20118;-81
2021/08/10 06:21:52;;;;;;;13.13;8.32;;;15.10;99.90;;;;;;5109629;28;20093;-80
2021/08/10 06:24:19;;;;;;;14.30;8.75;;;15.10;99.90;;;;;;5125439;28;20047;-81
2021/08/10 06:26:46;;;;;;;18.45;9.60;;;15.20;99.90;;;;;;5109524;28;20028;-80
2021/08/10 06:29:13;;;;;;;14.00;8.93;;;15.10;99.90;;;;;;5130982;28;20035;-80
2021/08/10 06:31:39;;;;;;;13.43;9.40;;;15.20;99.90;;;;;;5128747;28;20101;-80
2021/08/10 06:34:06;;;;;;;21.55;9.43;;;15.20;99.90;;;;;;5144698;28;20043;-80
2021/08/10 06:36:33;;;;;;;16.45;9.02;;;15.20;99.90;;;;;;5131831;28;20043;-79
2021/08/10 06:39:00;;;;;;;13.88;9.57;;;15.20;99.90;;;;;;5139544;28;20443;-80
2021/08/10 06:41:27;;;;;;;14.57;8.98;;;15.30;99.90;;;;;;5121448;28;20488;-80
2021/08/10 06:43:54;;;;;;;18.25;10.77;;;15.30;99.90;;;;;;5123857;28;20036;-80
2021/08/10 06:46:24;;;;;;;22.45;10.40;;;15.40;99.90;;;;;;5122096;28;20395;-80
2021/08/10 06:48:52;;;;;;;18.50;10.05;;;15.40;99.90;;;;;;5115448;28;20113;-80
2021/08/10 06:51:19;;;;;;;18.10;10.18;;;15.50;99.90;;;;;;5140605;28;20028;-80
2021/08/10 06:53:46;;;;;;;17.20;10.50;;;15.50;99.90;;;;;;5129452;28;20036;-80
2021/08/10 06:56:12;;;;;;;15.20;10.85;;;15.60;99.90;;;;;;5096282;28;20160;-80
2021/08/10 06:58:39;;;;;;;18.50;10.40;;;15.60;99.90;;;;;;5139623;28;20032;-79
2021/08/10 07:01:06;;;;;;;14.82;9.30;;;15.70;99.90;;;;;;5119476;28;20468;-80
2021/08/10 07:03:33;;;;;;;13.63;9.05;;;15.70;99.90;;;;;;5149380;28;20448;-80
2021/08/10 07:05:59;;;;;;;15.63;10.35;;;15.70;99.90;;;;;;5149989;28;20070;-81
2021/08/10 07:08:26;;;;;;;17.77;10.75;;;15.70;99.90;;;;;;5132289;28;20040;-80
2021/08/10 07:10:53;;;;;;;16.98;10.77;;;15.60;99.90;;;;;;5131892;28;20399;-81
2021/08/10 07:13:20;;;;;;;15.30;10.30;;;15.60;99.90;;;;;;5109624;28;20114;-80
2021/08/10 07:15:46;;;;;;;17.20;10.98;;;15.70;99.90;;;;;;5111780;28;20067;-81
2021/08/10 07:18:13;;;;;;;15.40;10.35;;;15.70;99.90;;;;;;5129068;28;20636;-79
2021/08/10 07:20:40;;;;;;;15.27;9.98;;;15.80;99.90;;;;;;5112166;28;20476;-80
2021/08/10 07:23:07;;;;;;;16.33;9.60;;;15.80;99.90;;;;;;5142837;28;20052;-80
2021/08/10 07:25:34;;;;;;;14.23;10.63;;;15.90;99.90;;;;;;5122467;28;20107;-79
2021/08/10 07:28:01;;;;;;;13.70;8.80;;;15.90;99.90;;;;;;5131228;28;20111;-80
2021/08/10 07:30:28;;;;;;;11.57;8.85;;;15.90;99.90;;;;;;5107052;28;20506;-79
2021/08/10 07:32:54;;;;;;;14.05;8.10;;;15.90;99.90;;;;;;5137430;28;20501;-81
2021/08/10 07:35:21;;;;;;;10.52;7.80;;;16.00;99.90;;;;;;5112268;28;20040;-81
2021/08/10 07:37:48;;;;;;;12.65;8.52;;;16.00;99.90;;;;;;5128473;28;20036;-79
2021/08/10 07:40:15;;;;;;;12.32;7.82;;;16.20;99.90;;;;;;5111706;28;20055;-75
2021/08/10 07:42:43;;;;;;;14.65;8.07;;;16.30;99.90;;;;;;5127275;28;20036;-78
2021/08/10 07:45:10;;;;;;;13.52;7.35;;;16.40;99.90;;;;;;5128613;28;20117;-76
2021/08/10 07:47:37;;;;;;;11.85;7.00;;;16.40;99.90;;;;;;5094573;28;20059;-78
2021/08/10 07:50:04;;;;;;;13.25;7.43;;;16.30;99.90;;;;;;5128639;28;20044;-79
2021/08/10 07:52:31;;;;;;;10.60;6.97;;;16.30;99.90;;;;;;5127939;28;20052;-79
2021/08/10 07:54:58;;;;;;;10.15;6.22;;;16.20;99.90;;;;;;5111847;28;20050;-76
2021/08/10 07:57:25;;;;;;;13.52;7.57;;;16.10;99.90;;;;;;5128784;28;20043;-80
2021/08/10 07:59:52;;;;;;;12.30;7.05;;;16.10;99.90;;;;;;5111219;28;20044;-80
2021/08/10 08:02:18;;;;;;;14.75;7.95;;;16.00;99.90;;;;;;5129783;28;20075;-79
2021/08/10 08:04:45;;;;;;;12.65;7.25;;;16.00;99.90;;;;;;5094557;28;20400;-80
2021/08/10 08:07:12;;;;;;;28.38;8.95;;;16.00;99.90;;;;;;5095143;28;20040;-80
2021/08/10 08:09:39;;;;;;;12.32;8.00;;;16.00;99.90;;;;;;5127928;28;20074;-80
2021/08/10 08:12:06;;;;;;;11.05;7.20;;;16.00;99.90;;;;;;5094782;28;20040;-80
2021/08/10 08:14:32;;;;;;;14.95;8.07;;;16.00;99.90;;;;;;5128033;28;20063;-80
2021/08/10 08:16:59;;;;;;;12.25;6.65;;;16.10;99.90;;;;;;5128278;28;20039;-81
2021/08/10 08:19:26;;;;;;;12.85;7.53;;;16.10;99.90;;;;;;5128464;28;20047;-81
2021/08/10 08:21:53;;;;;;;10.60;6.40;;;16.00;99.90;;;;;;5094068;28;20044;-81
2021/08/10 08:24:20;;;;;;;8.88;5.55;;;16.00;99.90;;;;;;5111326;28;20089;-81
2021/08/10 08:26:46;;;;;;;9.57;5.47;;;15.90;99.90;;;;;;5094477;28;20043;-81
2021/08/10 08:29:13;;;;;;;9.95;6.03;;;15.80;99.90;;;;;;5094655;28;20172;-80
2021/08/10 08:31:40;;;;;;;7.57;4.90;;;15.70;99.90;;;;;;5134024;28;20039;-80
2021/08/10 08:34:07;;;;;;;7.20;4.28;;;15.70;99.90;;;;;;5143524;28;20469;-80
2021/08/10 08:36:33;;;;;;;10.38;4.63;;;15.60;99.90;;;;;;5093930;28;20071;-76
2021/08/10 08:39:00;;;;;;;9.65;4.57;;;15.50;99.90;;;;;;5093244;28;20128;-78
2021/08/10 08:41:27;;;;;;;9.35;4.38;;;15.50;99.90;;;;;;5134471;28;20070;-79
2021/08/10 08:43:54;;;;;;;10.40;5.20;;;15.50;99.90;;;;;;5146178;28;20063;-80
2021/08/10 08:46:22;;;;;;;9.60;5.20;;;15.50;99.90;;;;;;5128202;28;20119;-81
2021/08/10 08:48:50;;;;;;;9.70;5.35;;;15.70;99.90;;;;;;5126661;28;20059;-78
2021/08/10 08:51:23;;;;;;;9.88;6.68;;;15.90;99.90;;;;;;5110405;28;20380;-79
2021/08/10 08:53:52;;;;;;;10.02;6.88;;;16.10;99.90;;;;;;5127978;28;20400;-80
2021/08/10 08:56:23;;;;;;;9.70;6.82;;;16.50;99.90;;;;;;5136924;28;20066;-81
2021/08/10 08:58:55;;;;;;;12.15;7.38;;;16.60;99.90;;;;;;5129825;28;20032;-81
2021/08/10 09:01:22;;;;;;;9.90;7.15;;;16.70;99.90;;;;;;5135624;28;20097;-80
2021/08/10 09:03:49;;;;;;;12.18;7.90;;;16.80;99.90;;;;;;5147546;28;20043;-81
2021/08/10 09:06:17;;;;;;;16.20;8.75;;;16.90;99.90;;;;;;5130781;28;20134;-79
2021/08/10 09:08:45;;;;;;;12.30;8.57;;;17.10;99.90;;;;;;5129707;28;20036;-82
2021/08/10 09:11:23;;;;;;;13.05;8.07;;;17.10;99.90;;;;;;5147780;28;20123;-80
2021/08/10 09:14:00;;;;;;;16.42;9.15;;;17.30;99.90;;;;;;5148643;28;20042;-79
2021/08/10 09:16:27;;;;;;;18.42;10.65;;;17.40;99.90;;;;;;5147525;28;20440;-81
2021/08/10 09:18:54;;;;;;;16.65;10.77;;;17.50;99.90;;;;;;5148325;28;20122;-80
2021/08/10 09:21:23;;;;;;;16.17;10.70;;;17.60;99.90;;;;;;5147851;28;20039;-81
2021/08/10 09:24:10;;;;;;;15.35;10.20;;;17.60;99.90;;;;;;5147071;28;20047;-81
2021/08/10 09:26:40;;;;;;;16.58;10.82;;;17.60;99.90;;;;;;5147383;28;20032;-81
2021/08/10 09:29:06;;;;;;;18.17;11.27;;;17.50;99.90;;;;;;5148573;28;20039;-81
2021/08/10 09:31:46;;;;;;;23.00;10.15;;;17.40;99.90;;;;;;5112953;28;20039;-82
2021/08/10 09:34:22;;;;;;;19.55;10.25;;;17.40;99.90;;;;;;5147780;28;20543;-81
2021/08/10 09:36:49;;;;;;;15.82;11.07;;;17.30;99.90;;;;;;5146915;28;20392;-81
2021/08/10 09:39:26;;;;;;;16.65;11.10;;;17.30;99.90;;;;;;5146793;28;20040;-82
2021/08/10 09:42:13;;;;;;;15.77;10.77;;;17.40;99.90;;;;;;5148167;28;20089;-82
2021/08/10 09:45:09;;;;;;;16.98;11.27;;;17.60;99.90;;;;;;5130223;28;20054;-81
2021/08/10 09:47:40;;;;;;;15.73;11.88;;;17.70;99.90;;;;;;5122315;28;20075;-83
2021/08/10 09:50:26;;;;;;;17.95;11.05;;;17.80;99.90;;;;;;5147534;28;20042;-84
2021/08/10 09:52:54;;;;;;;18.05;12.13;;;17.90;99.90;;;;;;5146806;28;20044;-85
2021/08/10 09:55:20;;;;;;;18.80;11.70;;;18.00;99.90;;;;;;5113971;28;20055;-84
2021/08/10 09:58:02;;;;;;;13.77;9.35;;;18.10;99.90;;;;;;5130416;28;20109;-84
2021/08/10 10:00:45;;;;;;;13.63;8.45;;;18.20;99.90;;;;;;5147549;28;20031;-84
2021/08/10 10:03:20;;;;;;;31.95;11.32;;;18.30;99.90;;;;;;5130940;28;20127;-84
2021/08/10 10:06:01;;;;;;;13.50;8.40;;;18.40;99.90;;;;;;5132394;28;20066;-84
2021/08/10 10:08:28;;;;;;;14.18;7.80;;;18.50;99.90;;;;;;5135588;28;20054;-85
2021/08/10 10:10:55;;;;;;;9.98;5.70;;;18.80;99.90;;;;;;5134204;28;20040;-85
2021/08/10 10:13:23;;;;;;;12.43;5.47;;;18.80;99.90;;;;;;5152772;28;20035;-85
2021/08/10 10:15:51;;;;;;;11.80;5.93;;;18.90;99.90;;;;;;5150829;28;20452;-87
2021/08/10 10:18:22;;;;;;;9.05;4.10;;;19.00;99.90;;;;;;5151592;28;20040;-85
2021/08/10 10:20:49;;;;;;;7.15;4.43;;;19.10;99.90;;;;;;5150832;28;20107;-86
2021/08/10 10:23:37;;;;;;;8.45;4.22;;;19.10;99.90;;;;;;5118553;28;20104;-87
2021/08/10 10:26:05;;;;;;;11.10;4.57;;;19.10;99.90;;;;;;5115507;28;20467;-86
2021/08/10 10:28:39;;;;;;;7.93;4.25;;;19.10;99.90;;;;;;5132095;28;20118;-86
2021/08/10 10:31:05;;;;;;;7.97;4.32;;;18.90;99.90;;;;;;5111846;28;20480;-87
2021/08/10 10:33:35;;;;;;;9.68;4.47;;;18.80;99.90;;;;;;5132047;28;20071;-86
2021/08/10 10:36:02;;;;;;;8.65;5.57;;;18.80;99.90;;;;;;5145526;28;20055;-86
2021/08/10 10:38:31;;;;;;;7.75;4.78;;;18.80;99.90;;;;;;5132586;28;20035;-83
2021/08/10 10:41:00;;;;;;;7.47;4.97;;;18.80;99.90;;;;;;5131331;28;20040;-87
2021/08/10 10:43:27;;;;;;;9.23;5.15;;;18.80;99.90;;;;;;5117224;28;20039;-85
2021/08/10 10:45:55;;;;;;;8.43;4.95;;;18.80;99.90;;;;;;5141345;28;20046;-84
2021/08/10 10:48:25;;;;;;;9.15;4.25;;;18.70;99.90;;;;;;5150917;28;20177;-86
2021/08/10 10:51:12;;;;;;;6.65;4.13;;;18.50;99.90;;;;;;5146341;28;20062;-84
2021/08/10 10:53:46;;;;;;;9.50;4.63;;;18.40;99.90;;;;;;5152442;28;20403;-86
2021/08/10 10:56:33;;;;;;;8.32;4.63;;;18.60;99.90;;;;;;5151972;28;20031;-86
2021/08/10 10:59:19;;;;;;;10.95;5.22;;;18.90;99.90;;;;;;5131984;28;20047;-83
2021/08/10 11:01:46;;;;;;;9.05;4.80;;;19.10;99.90;;;;;;5130334;28;20123;-84
2021/08/10 11:04:13;;;;;;;9.27;5.18;;;19.20;99.90;;;;;;5112860;28;20442;-83
2021/08/10 11:06:44;;;;;;;8.55;4.43;;;19.40;99.90;;;;;;5131517;28;20048;-84
2021/08/10 11:09:36;;;;;;;299.17;18.77;;;19.40;99.90;;;;;;5130979;28;20444;-87
2021/08/10 11:12:24;;;;;;;8.65;4.38;;;19.60;99.90;;;;;;5131286;28;20039;-85
2021/08/10 11:14:54;;;;;;;11.57;4.50;;;19.70;99.90;;;;;;5112849;28;20067;-80
2021/08/10 11:17:21;;;;;;;8.52;4.60;;;19.80;99.90;;;;;;5112698;28;20079;-82
2021/08/10 11:19:49;;;;;;;9.85;4.55;;;19.70;99.90;;;;;;5112964;28;20064;-82
2021/08/10 11:22:19;;;;;;;8.93;4.20;;;19.60;99.90;;;;;;5129924;28;20036;-82
2021/08/10 11:25:02;;;;;;;9.05;3.70;;;19.60;99.90;;;;;;5130890;28;20032;-84
2021/08/10 11:27:38;;;;;;;6.22;3.35;;;19.40;99.90;;;;;;5130786;28;20040;-83
2021/08/10 11:30:30;;;;;;;6.43;3.25;;;19.40;99.90;;;;;;5129195;28;20035;-84
2021/08/10 11:32:57;;;;;;;8.13;3.03;;;19.40;99.90;;;;;;5130830;28;20036;-85
2021/08/10 11:35:38;;;;;;;7.57;3.00;;;19.60;99.90;;;;;;5129499;28;20139;-82
2021/08/10 11:38:13;;;;;;;10.18;3.05;;;19.80;99.90;;;;;;5129951;28;20032;-84
2021/08/10 11:41:05;;;;;;;5.45;2.50;;;20.00;99.90;;;;;;5112767;28;20503;-85
2021/08/10 11:43:48;;;;;;;6.63;3.05;;;20.20;99.90;;;;;;5113446;28;20068;-82
2021/08/10 11:46:18;;;;;;;6.18;2.92;;;20.40;99.90;;;;;;5128921;28;20047;-84
2021/08/10 11:48:47;;;;;;;6.40;3.05;;;20.60;99.90;;;;;;5129192;28;20047;-85
2021/08/10 11:51:27;;;;;;;6.65;3.22;;;20.80;99.90;;;;;;5128916;28;20032;-83
2021/08/10 11:53:56;;;;;;;6.80;2.90;;;20.90;99.90;;;;;;5129158;28;20485;-86
2021/08/10 11:56:31;;;;;;;6.30;3.03;;;21.10;99.90;;;;;;5129773;28;20036;-90
2021/08/10 11:58:59;;;;;;;;;;;21.30;99.90;;;;;;5129738;28;20067;-85
2021/08/10 12:01:37;;;;;;;9.02;3.20;;;21.40;99.90;;;;;;5130530;28;19961;-85
2021/08/10 12:04:30;;;;;;;6.78;3.10;;;21.60;99.90;;;;;;5130473;28;20499;-87
2021/08/10 12:06:58;;;;;;;7.03;3.20;;;21.60;99.90;;;;;;5109567;28;20519;-84
2021/08/10 12:09:33;;;;;;;7.82;3.85;;;21.20;99.90;;;;;;5095629;28;20055;-84
2021/08/10 12:12:02;;;;;;;11.82;4.40;;;20.90;99.90;;;;;;5112777;28;20047;-89
2021/08/10 12:14:40;;;;;;;21.40;5.65;;;20.20;99.90;;;;;;5113060;28;20036;-87
2021/08/10 12:17:26;;;;;;;9.77;4.57;;;19.60;99.90;;;;;;5128213;28;20039;-84
2021/08/10 12:19:54;;;;;;;7.15;3.45;;;19.10;99.90;;;;;;5111846;28;20046;-86
2021/08/10 12:22:26;;;;;;;9.10;4.18;;;18.90;99.90;;;;;;5095040;28;20040;-85
2021/08/10 12:24:54;;;;;;;9.23;4.45;;;18.80;99.90;;;;;;5128414;28;20035;-84
2021/08/10 12:27:28;;;;;;;11.38;4.72;;;18.70;99.90;;;;;;5128259;28;20032;-87
2021/08/10 12:29:54;;;;;;;9.43;4.28;;;18.70;99.90;;;;;;5128816;28;20110;-86
2021/08/10 12:32:24;;;;;;;6.90;3.90;;;18.80;99.90;;;;;;5111306;28;20048;-86
2021/08/10 12:34:51;;;;;;;7.05;3.72;;;18.80;99.90;;;;;;5128566;28;20043;-87
2021/08/10 12:37:28;;;;;;;7.57;4.13;;;18.80;99.90;;;;;;5129727;28;20036;-85
2021/08/10 12:39:55;;;;;;;9.15;3.85;;;18.90;99.90;;;;;;5147135;28;20035;-86
2021/08/10 12:42:22;;;;;;;6.45;3.40;;;18.80;99.90;;;;;;5148247;28;20043;-85
2021/08/10 12:44:53;;;;;;;6.47;3.70;;;18.90;99.90;;;;;;5150252;28;20042;-85
2021/08/10 12:47:38;;;;;;;7.50;3.75;;;19.10;99.90;;;;;;5148006;28;20032;-84
2021/08/10 12:50:23;;;;;;;9.70;4.22;;;19.20;99.90;;;;;;5149115;28;20067;-84
2021/08/10 12:52:50;;;;;;;6.15;3.70;;;19.30;99.90;;;;;;5148146;28;20039;-84